createdAt,value
2018-03-31T00:01:54.065Z,486.70
2018-03-31T00:04:23.087Z,486.70
2018-03-31T00:06:51.930Z,486.70
2018-03-31T00:09:20.761Z,486.70
2018-03-31T00:11:49.738Z,486.70
2018-03-31T00:14:18.525Z,486.70
2018-03-31T00:16:47.369Z,486.70
2018-03-31T00:19:16.219Z,486.70
2018-03-31T00:21:46.583Z,486.70
2018-03-31T00:24:15.374Z,486.70
2018-03-31T00:26:45.760Z,486.60
2018-03-31T00:29:14.650Z,486.70
2018-03-31T00:31:43.402Z,486.70
2018-03-31T00:34:13.728Z,486.70
2018-03-31T00:36:44.108Z,486.70
2018-03-31T00:39:13.254Z,486.70
2018-03-31T00:41:43.609Z,486.70
2018-03-31T00:44:12.496Z,486.70
2018-03-31T00:46:41.391Z,486.70
2018-03-31T00:49:10.220Z,486.70
2018-03-31T00:51:39.062Z,486.70
2018-03-31T00:54:07.836Z,486.70
2018-03-31T00:56:36.640Z,486.70
2018-03-31T00:59:05.467Z,486.70
2018-03-31T01:01:34.306Z,486.70
2018-03-31T01:04:04.639Z,486.70
2018-03-31T01:06:33.492Z,486.70
2018-03-31T01:09:02.297Z,486.70
2018-03-31T01:11:31.217Z,486.70
2018-03-31T01:14:01.587Z,486.70
2018-03-31T01:16:30.434Z,486.70
2018-03-31T01:18:59.329Z,486.70
2018-03-31T01:21:28.112Z,486.70
2018-03-31T01:23:56.917Z,486.70
2018-03-31T01:26:27.351Z,486.70
2018-03-31T01:28:56.176Z,486.60
2018-03-31T01:31:25.092Z,486.60
2018-03-31T01:33:53.963Z,486.70
2018-03-31T01:36:22.848Z,486.70
2018-03-31T01:38:51.700Z,486.70
2018-03-31T01:41:20.554Z,486.60
2018-03-31T01:43:49.429Z,486.60
2018-03-31T01:46:18.257Z,486.60
2018-03-31T01:48:47.089Z,486.60
2018-03-31T01:51:15.935Z,486.60
2018-03-31T01:53:46.280Z,486.60
2018-03-31T01:56:16.627Z,486.60
2018-03-31T01:58:45.469Z,486.60
2018-03-31T02:01:14.284Z,486.60
2018-03-31T02:03:43.116Z,486.60
2018-03-31T02:06:12.065Z,486.60
2018-03-31T02:08:40.907Z,486.60
2018-03-31T02:11:09.764Z,486.60
2018-03-31T02:13:38.579Z,486.60
2018-03-31T02:16:07.395Z,486.60
2018-03-31T02:18:37.718Z,486.60
2018-03-31T02:21:08.152Z,486.60
2018-03-31T02:23:37.033Z,486.60
2018-03-31T02:26:05.845Z,486.60
2018-03-31T02:28:36.145Z,486.50
2018-03-31T02:31:06.501Z,486.60
2018-03-31T02:33:35.354Z,486.60
2018-03-31T02:36:04.152Z,486.60
2018-03-31T02:38:32.996Z,486.60
2018-03-31T02:41:01.996Z,486.60
2018-03-31T02:43:31.114Z,486.60
2018-03-31T02:46:01.509Z,486.60
2018-03-31T02:48:30.292Z,486.50
2018-03-31T02:50:59.212Z,486.60
2018-03-31T02:53:28.147Z,486.60
2018-03-31T02:55:56.994Z,486.60
2018-03-31T02:58:25.780Z,486.60
2018-03-31T03:00:54.649Z,486.50
2018-03-31T03:03:23.564Z,486.50
2018-03-31T03:05:52.408Z,486.60
2018-03-31T03:08:21.226Z,486.60
2018-03-31T03:10:49.964Z,486.50
2018-03-31T03:13:20.365Z,486.60
2018-03-31T03:15:48.933Z,486.60
2018-03-31T03:18:17.550Z,486.60
2018-03-31T03:20:46.101Z,486.60
2018-03-31T03:23:14.732Z,486.50
2018-03-31T03:25:43.351Z,486.60
2018-03-31T03:28:11.945Z,486.60
2018-03-31T03:30:40.537Z,486.60
2018-03-31T03:33:09.176Z,486.50
2018-03-31T03:35:39.239Z,486.60
2018-03-31T03:38:07.860Z,486.50
2018-03-31T03:40:36.455Z,486.60
2018-03-31T03:43:05.040Z,486.60
2018-03-31T03:45:35.176Z,486.60
2018-03-31T03:48:05.173Z,486.60
2018-03-31T03:50:33.728Z,486.60
2018-03-31T03:53:02.314Z,486.60
2018-03-31T03:55:30.879Z,486.60
2018-03-31T03:57:59.616Z,486.60
2018-03-31T04:00:29.693Z,486.60
2018-03-31T04:02:59.812Z,486.50
2018-03-31T04:05:28.369Z,486.60
2018-03-31T04:07:57.037Z,486.60
2018-03-31T04:10:25.719Z,486.60
2018-03-31T04:12:55.824Z,486.60
2018-03-31T04:15:25.954Z,486.50
2018-03-31T04:17:56.272Z,486.50
2018-03-31T04:20:26.424Z,486.60
2018-03-31T04:22:54.979Z,486.60
2018-03-31T04:25:23.580Z,486.60
2018-03-31T04:27:52.136Z,486.60
2018-03-31T04:30:22.472Z,486.60
2018-03-31T04:32:51.077Z,486.60
2018-03-31T04:35:19.600Z,486.50
2018-03-31T04:37:48.195Z,486.50
2018-03-31T04:40:16.781Z,486.50
2018-03-31T04:42:46.861Z,486.60
2018-03-31T04:45:15.486Z,486.60
2018-03-31T04:47:45.586Z,486.50
2018-03-31T04:50:14.137Z,486.60
2018-03-31T04:52:42.773Z,486.60
2018-03-31T04:55:12.828Z,486.50
2018-03-31T04:57:41.432Z,486.60
2018-03-31T05:00:10.028Z,486.50
2018-03-31T05:02:38.669Z,486.60
2018-03-31T05:05:07.432Z,486.50
2018-03-31T05:07:36.244Z,486.60
2018-03-31T05:10:04.893Z,486.60
2018-03-31T05:12:35.103Z,486.60
2018-03-31T05:15:03.728Z,486.60
2018-03-31T05:17:32.488Z,486.60
2018-03-31T05:20:02.530Z,486.40
2018-03-31T05:22:31.160Z,486.60
2018-03-31T05:24:59.716Z,486.50
2018-03-31T05:27:28.336Z,486.50
2018-03-31T05:29:56.916Z,486.50
2018-03-31T05:32:25.495Z,486.50
2018-03-31T05:34:54.107Z,486.60
2018-03-31T05:37:22.645Z,486.60
2018-03-31T05:39:51.253Z,486.50
2018-03-31T05:42:19.827Z,486.60
2018-03-31T05:44:48.484Z,486.50
2018-03-31T05:47:17.048Z,486.60
2018-03-31T05:49:45.642Z,486.50
2018-03-31T05:52:14.268Z,486.50
2018-03-31T05:54:42.824Z,486.50
2018-03-31T05:57:11.401Z,486.40
2018-03-31T05:59:39.984Z,486.50
2018-03-31T06:02:08.497Z,486.50
2018-03-31T06:04:38.587Z,486.40
2018-03-31T06:07:07.164Z,486.60
2018-03-31T06:09:35.680Z,486.50
2018-03-31T06:12:04.294Z,486.60
2018-03-31T06:14:32.947Z,486.50
2018-03-31T06:17:01.847Z,486.60
2018-03-31T06:19:31.906Z,486.70
2018-03-31T06:22:00.509Z,486.60
2018-03-31T06:24:30.574Z,486.70
2018-03-31T06:27:00.644Z,486.70
2018-03-31T06:29:29.321Z,486.80
2018-03-31T06:31:57.981Z,486.70
2018-03-31T06:34:26.609Z,486.80
2018-03-31T06:36:55.158Z,486.80
2018-03-31T06:39:23.826Z,486.90
2018-03-31T06:41:52.391Z,486.80
2018-03-31T06:44:22.476Z,486.90
2018-03-31T06:46:51.057Z,486.90
2018-03-31T06:49:19.660Z,487.00
2018-03-31T06:51:49.769Z,487.00
2018-03-31T06:54:18.498Z,487.00
2018-03-31T06:56:47.156Z,487.00
2018-03-31T06:59:15.682Z,487.00
2018-03-31T07:01:44.564Z,487.00
2018-03-31T07:04:13.112Z,487.00
2018-03-31T07:06:41.844Z,487.10
2018-03-31T07:09:10.588Z,487.10
2018-03-31T07:11:40.909Z,487.10
2018-03-31T07:14:09.664Z,487.10
2018-03-31T07:16:39.780Z,487.00
2018-03-31T07:19:08.546Z,487.00
2018-03-31T07:21:37.269Z,487.10
2018-03-31T07:24:05.775Z,487.00
2018-03-31T07:26:34.353Z,487.00
2018-03-31T07:29:02.957Z,487.00
2018-03-31T07:31:31.560Z,487.00
2018-03-31T07:34:00.196Z,487.00
2018-03-31T07:36:30.392Z,487.00
2018-03-31T07:39:00.573Z,487.00
2018-03-31T07:41:29.193Z,487.10
2018-03-31T07:43:57.761Z,487.00
2018-03-31T07:46:27.948Z,486.90
2018-03-31T07:48:56.501Z,487.00
2018-03-31T07:51:25.159Z,487.00
2018-03-31T07:53:55.323Z,487.00
2018-03-31T07:56:25.846Z,487.00
2018-03-31T07:58:54.570Z,487.00
2018-03-31T08:01:23.136Z,487.00
2018-03-31T08:03:51.842Z,487.00
2018-03-31T08:06:20.631Z,487.00
2018-03-31T08:08:49.372Z,487.00
2018-03-31T08:11:19.748Z,487.00
2018-03-31T08:13:48.427Z,487.00
2018-03-31T08:16:16.979Z,487.00
2018-03-31T08:18:45.564Z,487.00
2018-03-31T08:21:14.140Z,487.00
2018-03-31T08:23:43.063Z,487.00
2018-03-31T08:26:13.287Z,486.90
2018-03-31T08:28:41.913Z,486.90
2018-03-31T08:31:12.012Z,486.90
2018-03-31T08:33:40.632Z,486.90
2018-03-31T08:36:09.208Z,486.90
2018-03-31T08:38:39.275Z,486.90
2018-03-31T08:41:07.977Z,486.90
2018-03-31T08:43:36.719Z,486.80
2018-03-31T08:46:05.422Z,486.80
2018-03-31T08:48:33.956Z,486.90
2018-03-31T08:51:04.158Z,486.90
2018-03-31T08:53:32.741Z,486.80
2018-03-31T08:56:02.853Z,486.80
2018-03-31T08:58:31.460Z,486.80
2018-03-31T09:01:00.056Z,486.80
2018-03-31T09:03:28.631Z,486.80
2018-03-31T09:05:58.669Z,486.90
2018-03-31T09:08:27.305Z,486.90
2018-03-31T09:10:55.828Z,486.80
2018-03-31T09:13:24.439Z,486.90
2018-03-31T09:15:53.002Z,486.90
2018-03-31T09:18:21.525Z,486.90
2018-03-31T09:20:50.088Z,486.80
2018-03-31T09:23:18.665Z,486.90
2018-03-31T09:25:47.273Z,486.80
2018-03-31T09:28:15.824Z,486.80
2018-03-31T09:30:44.449Z,486.90
2018-03-31T09:33:13.000Z,486.80
2018-03-31T09:35:41.552Z,486.90
2018-03-31T09:38:10.301Z,486.80
2018-03-31T09:40:38.907Z,486.80
2018-03-31T09:43:08.996Z,486.80
2018-03-31T09:45:37.579Z,486.80
2018-03-31T09:48:06.128Z,486.80
2018-03-31T09:50:34.703Z,486.80
2018-03-31T09:53:03.257Z,486.80
2018-03-31T09:55:32.224Z,486.80
2018-03-31T09:58:02.398Z,486.80
2018-03-31T10:00:35.457Z,486.80
2018-03-31T10:03:03.999Z,486.70
2018-03-31T10:05:34.848Z,486.80
2018-03-31T10:08:03.605Z,486.80
2018-03-31T10:10:32.161Z,486.80
2018-03-31T10:13:00.797Z,486.80
2018-03-31T10:15:30.888Z,486.70
2018-03-31T10:17:59.473Z,486.80
2018-03-31T10:20:28.060Z,486.70
2018-03-31T10:22:56.665Z,486.70
2018-03-31T10:25:25.460Z,486.80
2018-03-31T10:27:54.085Z,486.70
2018-03-31T10:30:22.681Z,486.70
2018-03-31T10:32:51.425Z,486.80
2018-03-31T10:35:21.525Z,486.70
2018-03-31T10:37:50.160Z,486.80
2018-03-31T10:40:18.816Z,486.80
2018-03-31T10:42:47.347Z,486.70
2018-03-31T10:45:15.960Z,486.80
2018-03-31T10:47:44.585Z,486.80
2018-03-31T10:50:13.125Z,486.70
2018-03-31T10:52:43.245Z,486.70
2018-03-31T10:55:11.787Z,486.70
2018-03-31T10:57:40.389Z,486.70
2018-03-31T11:00:08.963Z,486.70
2018-03-31T11:02:37.519Z,486.80
2018-03-31T11:05:06.132Z,486.70
2018-03-31T11:07:34.727Z,486.80
2018-03-31T11:10:03.363Z,486.70
2018-03-31T11:12:32.009Z,486.70
2018-03-31T11:15:00.538Z,486.70
2018-03-31T11:17:29.224Z,486.70
2018-03-31T11:19:57.793Z,486.70
2018-03-31T11:22:26.423Z,486.70
2018-03-31T11:24:55.010Z,486.80
2018-03-31T11:27:23.675Z,486.80
2018-03-31T11:29:52.245Z,486.70
2018-03-31T11:32:20.892Z,486.70
2018-03-31T11:34:50.985Z,486.70
2018-03-31T11:37:19.607Z,486.70
2018-03-31T11:39:48.104Z,486.70
2018-03-31T11:42:16.726Z,486.70
2018-03-31T11:44:45.278Z,486.70
2018-03-31T11:47:13.844Z,486.70
2018-03-31T11:49:42.390Z,486.70
2018-03-31T11:52:12.488Z,486.70
2018-03-31T11:54:41.066Z,486.70
2018-03-31T11:57:09.654Z,486.70
2018-03-31T11:59:38.336Z,486.70
2018-03-31T12:02:06.918Z,486.70
2018-03-31T12:04:36.988Z,486.70
2018-03-31T12:07:05.584Z,486.70
2018-03-31T12:09:34.147Z,486.70
2018-03-31T12:12:02.775Z,486.70
2018-03-31T12:14:31.407Z,486.60
2018-03-31T12:17:01.503Z,486.70
2018-03-31T12:19:30.044Z,486.60
2018-03-31T12:21:58.628Z,486.60
2018-03-31T12:24:27.258Z,486.60
2018-03-31T12:26:55.869Z,486.70
2018-03-31T12:29:25.460Z,486.60
2018-03-31T12:31:55.564Z,486.60
2018-03-31T12:34:24.732Z,486.60
2018-03-31T12:36:53.330Z,486.60
2018-03-31T12:39:21.892Z,486.70
2018-03-31T12:41:50.502Z,486.60
2018-03-31T12:44:19.073Z,486.60
2018-03-31T12:46:47.720Z,486.60
2018-03-31T12:49:16.498Z,486.70
2018-03-31T12:51:45.092Z,486.60
2018-03-31T12:54:13.651Z,486.70
2018-03-31T12:56:42.208Z,486.60
2018-03-31T12:59:10.775Z,486.70
2018-03-31T13:01:39.416Z,486.60
2018-03-31T13:04:08.312Z,486.60
2018-03-31T13:06:36.935Z,486.70
2018-03-31T13:09:05.480Z,486.70
2018-03-31T13:11:34.207Z,486.70
2018-03-31T13:14:02.858Z,486.70
2018-03-31T13:16:31.389Z,486.70
2018-03-31T13:19:00.269Z,486.70
2018-03-31T13:21:28.907Z,486.70
2018-03-31T13:23:57.451Z,486.70
2018-03-31T13:26:27.822Z,486.70
2018-03-31T13:28:56.439Z,486.70
2018-03-31T13:31:25.000Z,486.70
2018-03-31T13:33:53.859Z,486.70
2018-03-31T13:36:22.377Z,486.70
2018-03-31T13:38:50.948Z,486.70
2018-03-31T13:41:19.657Z,486.70
2018-03-31T13:43:48.229Z,486.60
2018-03-31T13:46:16.761Z,486.60
2018-03-31T13:48:45.537Z,486.70
2018-03-31T13:51:14.143Z,486.60
2018-03-31T13:53:42.667Z,486.60
2018-03-31T13:56:11.875Z,486.60
2018-03-31T13:58:40.468Z,486.60
2018-03-31T14:01:10.509Z,486.60
2018-03-31T14:03:39.216Z,486.60
2018-03-31T14:06:07.742Z,486.60
2018-03-31T14:08:36.266Z,486.60
2018-03-31T14:11:06.785Z,486.60
2018-03-31T14:13:35.380Z,486.60
2018-03-31T14:16:03.951Z,486.70
2018-03-31T14:18:32.628Z,486.60
2018-03-31T14:21:01.184Z,486.60
2018-03-31T14:23:29.864Z,486.60
2018-03-31T14:25:58.760Z,486.70
2018-03-31T14:28:27.372Z,486.60
2018-03-31T14:30:55.928Z,486.60
2018-03-31T14:33:26.283Z,486.60
2018-03-31T14:35:54.956Z,486.60
2018-03-31T14:38:23.536Z,486.60
2018-03-31T14:40:52.160Z,486.60
2018-03-31T14:43:21.056Z,486.70
2018-03-31T14:45:49.573Z,486.60
2018-03-31T14:48:18.292Z,486.60
2018-03-31T14:50:46.890Z,486.60
2018-03-31T14:53:15.416Z,486.60
2018-03-31T14:55:44.016Z,486.60
2018-03-31T14:58:14.111Z,486.60
2018-03-31T15:00:42.733Z,486.60
2018-03-31T15:03:11.578Z,486.60
2018-03-31T15:05:41.629Z,486.60
2018-03-31T15:08:10.174Z,486.60
2018-03-31T15:10:39.121Z,486.60
2018-03-31T15:13:07.669Z,486.60
2018-03-31T15:15:37.738Z,486.60
2018-03-31T15:18:06.303Z,486.60
2018-03-31T15:20:35.079Z,486.60
2018-03-31T15:23:03.596Z,486.60
2018-03-31T15:25:32.202Z,486.60
2018-03-31T15:28:00.786Z,486.60
2018-03-31T15:30:29.592Z,486.60
2018-03-31T15:32:58.384Z,486.60
2018-03-31T15:35:28.466Z,486.60
2018-03-31T15:37:57.004Z,486.60
2018-03-31T15:40:25.864Z,486.60
2018-03-31T15:42:54.432Z,486.60
2018-03-31T15:45:24.611Z,486.60
2018-03-31T15:47:53.788Z,486.60
2018-03-31T15:50:22.388Z,486.60
2018-03-31T15:52:51.027Z,486.60
2018-03-31T15:55:21.132Z,486.60
2018-03-31T15:57:51.229Z,486.60
2018-03-31T16:00:19.776Z,486.60
2018-03-31T16:02:48.414Z,486.60
2018-03-31T16:05:16.980Z,486.60
2018-03-31T16:07:45.551Z,486.60
2018-03-31T16:10:14.144Z,486.60
2018-03-31T16:12:42.705Z,486.60
2018-03-31T16:15:11.304Z,486.60
2018-03-31T16:17:40.172Z,486.50
2018-03-31T16:20:08.772Z,486.50
2018-03-31T16:22:37.327Z,486.50
2018-03-31T16:25:06.279Z,486.50
2018-03-31T16:27:34.889Z,486.50
2018-03-31T16:30:04.996Z,486.50
2018-03-31T16:32:33.596Z,486.50
2018-03-31T16:35:03.892Z,486.50
2018-03-31T16:37:33.998Z,486.50
2018-03-31T16:40:02.600Z,486.50
2018-03-31T16:42:32.698Z,486.50
2018-03-31T16:45:01.381Z,486.50
2018-03-31T16:47:30.249Z,486.60
2018-03-31T16:49:58.797Z,486.50
2018-03-31T16:52:29.181Z,486.50
2018-03-31T16:54:57.848Z,486.50
2018-03-31T16:57:26.514Z,486.50
2018-03-31T16:59:55.173Z,486.50
2018-03-31T17:02:23.716Z,486.50
2018-03-31T17:04:52.595Z,486.50
2018-03-31T17:07:21.467Z,486.50
2018-03-31T17:09:50.076Z,486.50
2018-03-31T17:12:18.655Z,486.50
2018-03-31T17:14:47.253Z,486.50
2018-03-31T17:17:15.892Z,486.50
2018-03-31T17:19:44.405Z,486.50
2018-03-31T17:22:14.590Z,486.50
2018-03-31T17:24:43.164Z,486.50
2018-03-31T17:27:11.707Z,486.50
2018-03-31T17:29:42.085Z,486.50
2018-03-31T17:32:10.660Z,486.50
2018-03-31T17:34:39.168Z,486.50
2018-03-31T17:37:07.891Z,486.50
2018-03-31T17:39:37.908Z,486.50
2018-03-31T17:42:06.709Z,486.50
2018-03-31T17:44:35.620Z,486.50
2018-03-31T17:47:04.164Z,486.50
2018-03-31T17:49:32.740Z,486.50
2018-03-31T17:52:01.442Z,486.50
2018-03-31T17:54:31.544Z,486.50
2018-03-31T17:57:01.789Z,486.50
2018-03-31T17:59:31.880Z,486.50
2018-03-31T18:02:00.553Z,486.50
2018-03-31T18:04:29.164Z,486.50
2018-03-31T18:06:59.341Z,486.50
2018-03-31T18:09:28.188Z,486.50
2018-03-31T18:11:56.741Z,486.50
2018-03-31T18:14:25.335Z,486.50
2018-03-31T18:16:55.416Z,486.50
2018-03-31T18:19:24.069Z,486.60
2018-03-31T18:21:52.948Z,486.50
2018-03-31T18:24:21.523Z,486.50
2018-03-31T18:26:50.073Z,486.50
2018-03-31T18:29:18.676Z,486.50
2018-03-31T18:31:48.716Z,486.50
2018-03-31T18:34:17.594Z,486.50
2018-03-31T18:36:46.128Z,486.50
2018-03-31T18:39:14.733Z,486.50
2018-03-31T18:41:43.299Z,486.50
2018-03-31T18:44:11.881Z,486.50
2018-03-31T18:46:40.405Z,486.50
2018-03-31T18:49:10.687Z,486.50
2018-03-31T18:51:39.216Z,486.50
2018-03-31T18:54:07.764Z,486.50
2018-03-31T18:56:36.344Z,486.40
2018-03-31T18:59:05.028Z,486.40
2018-03-31T19:01:33.609Z,486.40
2018-03-31T19:04:02.223Z,486.50
2018-03-31T19:06:30.817Z,486.50
2018-03-31T19:08:59.659Z,486.40
2018-03-31T19:11:28.253Z,486.50
2018-03-31T19:13:58.312Z,486.40
2018-03-31T19:16:31.183Z,486.40
2018-03-31T19:18:59.732Z,486.40
2018-03-31T19:21:28.332Z,486.40
2018-03-31T19:23:58.456Z,486.40
2018-03-31T19:26:28.535Z,486.40
2018-03-31T19:28:57.156Z,486.40
2018-03-31T19:31:27.551Z,486.40
2018-03-31T19:33:57.765Z,486.40
2018-03-31T19:36:26.307Z,486.40
2018-03-31T19:38:54.875Z,486.40
2018-03-31T19:41:23.431Z,486.50
2018-03-31T19:43:51.986Z,486.40
2018-03-31T19:46:20.596Z,486.40
2018-03-31T19:48:50.992Z,486.40
2018-03-31T19:51:19.572Z,486.50
2018-03-31T19:53:48.197Z,486.40
2018-03-31T19:56:16.804Z,486.40
2018-03-31T19:58:45.365Z,486.40
2018-03-31T20:01:15.528Z,486.40
2018-03-31T20:03:44.212Z,486.40
2018-03-31T20:06:13.148Z,486.40
2018-03-31T20:08:43.445Z,486.50
2018-03-31T20:11:12.138Z,486.40
2018-03-31T20:13:40.711Z,486.40
2018-03-31T20:16:09.304Z,486.40
2018-03-31T20:18:37.810Z,486.40
2018-03-31T20:21:07.839Z,486.40
2018-03-31T20:23:38.245Z,486.40
2018-03-31T20:26:08.305Z,486.40
2018-03-31T20:28:36.911Z,486.40
2018-03-31T20:31:05.886Z,486.40
2018-03-31T20:33:34.708Z,486.40
2018-03-31T20:36:03.318Z,486.40
2018-03-31T20:38:32.264Z,486.40
2018-03-31T20:41:00.816Z,486.40
2018-03-31T20:43:29.399Z,486.40
2018-03-31T20:45:58.340Z,486.40
2018-03-31T20:48:26.908Z,486.40
2018-03-31T20:50:55.572Z,486.40
2018-03-31T20:53:24.178Z,486.40
2018-03-31T20:55:52.755Z,486.40
2018-03-31T20:58:21.332Z,486.40
2018-03-31T21:00:49.927Z,486.40
2018-03-31T21:03:18.561Z,486.40
2018-03-31T21:05:47.383Z,486.40
2018-03-31T21:08:15.958Z,486.40
2018-03-31T21:10:46.006Z,486.40
2018-03-31T21:13:16.148Z,486.40
2018-03-31T21:15:46.285Z,486.40
2018-03-31T21:18:14.836Z,486.40
2018-03-31T21:20:43.427Z,486.40
2018-03-31T21:23:13.466Z,486.40
2018-03-31T21:25:42.016Z,486.40
2018-03-31T21:28:10.572Z,486.40
2018-03-31T21:30:39.125Z,486.40
2018-03-31T21:33:07.713Z,486.40
2018-03-31T21:35:36.645Z,486.40
2018-03-31T21:38:05.168Z,486.40
2018-03-31T21:40:33.737Z,486.40
2018-03-31T21:43:03.857Z,486.40
2018-03-31T21:45:33.953Z,486.40
2018-03-31T21:48:02.602Z,486.40
2018-03-31T21:50:31.616Z,486.40
2018-03-31T21:53:00.228Z,486.40
2018-03-31T21:55:30.286Z,486.40
2018-03-31T21:57:59.845Z,486.40
2018-03-31T22:00:30.013Z,486.40
2018-03-31T22:02:58.943Z,486.40
2018-03-31T22:05:27.974Z,486.40
2018-03-31T22:07:56.520Z,486.40
2018-03-31T22:10:25.066Z,486.40
2018-03-31T22:12:57.858Z,486.40
2018-03-31T22:15:56.755Z,486.40
2018-03-31T22:18:26.896Z,486.40
2018-03-31T22:20:55.499Z,486.40
2018-03-31T22:23:25.624Z,486.40
2018-03-31T22:25:54.227Z,486.40
2018-03-31T22:28:22.823Z,486.40
2018-03-31T22:30:51.393Z,486.40
2018-03-31T22:33:20.005Z,486.40
2018-03-31T22:35:48.623Z,486.40
2018-03-31T22:38:17.281Z,486.40
2018-03-31T22:40:45.866Z,486.40
2018-03-31T22:43:14.484Z,486.40
2018-03-31T22:45:43.094Z,486.40
2018-03-31T22:48:11.693Z,486.40
2018-03-31T22:50:40.271Z,486.40
2018-03-31T22:53:08.878Z,486.40
2018-03-31T22:55:37.423Z,486.40
2018-03-31T22:58:06.008Z,486.40
2018-03-31T23:00:34.593Z,486.40
2018-03-31T23:03:03.418Z,486.40
2018-03-31T23:05:33.748Z,461.70
2018-03-31T23:08:02.614Z,486.40
2018-03-31T23:10:31.515Z,486.40
2018-03-31T23:13:00.289Z,461.70
2018-03-31T23:15:29.078Z,461.70
2018-03-31T23:17:59.443Z,461.70
2018-03-31T23:20:29.850Z,461.70
2018-03-31T23:22:59.048Z,461.70
2018-03-31T23:25:29.716Z,461.70
2018-03-31T23:27:58.927Z,461.70
2018-03-31T23:30:27.764Z,461.70
2018-03-31T23:32:56.617Z,461.70
2018-03-31T23:35:25.712Z,461.70
2018-03-31T23:37:54.541Z,486.40
2018-03-31T23:40:23.213Z,486.40
2018-03-31T23:42:51.816Z,486.40
2018-03-31T23:45:21.924Z,486.40
2018-03-31T23:47:50.863Z,486.40
2018-03-31T23:50:19.431Z,486.40
2018-03-31T23:52:48.022Z,486.40
2018-03-31T23:55:16.558Z,486.40
2018-03-31T23:57:45.184Z,461.70
